Aviation Digital Data Service (ADDS)

Output produced by METARs form (2250 UTC 23 March 2019)
found at http://www.aviationweather.gov/metar/data/
 
Forecast for: SPJL (JULIACA , PE)
Text: SPJL 231700Z 2318/2418 08005KT 9999 SCT020 TX19/2319Z TN04/2410Z
Forecast period: 1800 to 2000 UTC 23 March 2019
Forecast type: FROM: standard forecast or significant change
Winds: from the E (80 degrees) at 6 MPH (5 knots; 2.6 m/s)
Visibility: 6 or more miles 10+ km)
Ceiling: at least 12,000 feet AGL
Clouds: scattered clouds at 2000 feet AGL
Weather: no significant weather forecast for this period
Text: FM232000 10010KT 9999 BKN020
Forecast period: 2000 UTC 23 March 2019 to 0200 UTC 24 March 2019
Forecast type: FROM: standard forecast or significant change
Winds: from the E (100 degrees) at 12 MPH (10 knots; 5.1 m/s)
Visibility: 6 or more miles 10+ km)
Ceiling: 2000 feet AGL
Clouds: broken clouds at 2000 feet AGL
Weather: no significant weather forecast for this period
Text: FM240200 VRB05KT 9999 SCT020
Forecast period: 0200 to 1800 UTC 24 March 2019
Forecast type: FROM: standard forecast or significant change
Winds: variable direction winds at 6 MPH (5 knots; 2.6 m/s)
Visibility: 6 or more miles 10+ km)
Ceiling: at least 12,000 feet AGL
Clouds: scattered clouds at 2000 feet AGL
Weather: no significant weather forecast for this period